Terminal Aerodrome Forecast
Issued by NWS

Home | Current Version | Previous Version | Text Only | Print | Product List | Glossary On
Versions: 1 2 3 4 5 6 7 8 9 10 11 12 13 14 15
165
FTUS43 KILX 272326
TAFCMI
TAF
KCMI 272326Z 2800/2824 17006KT P6SM SCT250
     FM281300 16013KT P6SM FEW200
     FM281600 18018G28KT P6SM BKN200=

USA.gov is the U.S. government's official web portal to all federal, state and local government web resources and services.